WetterOnline ( https://www.wetteronline.de )

Wetter aktuell Grevesmühlen

Aktuelles Wetter: Boltenhagen (17m)

6-stündlich | Neueste Meldungen
Ortszeit Temperatur Wetter
Fr, 23.08. 8:00 14.6° C leicht bewölkt
Fr, 23.08. 2:00 14.9° C wolkenlos
Do, 22.08. 20:00 22.0° C wolkenlos
Do, 22.08. 14:00 25.1° C fast wolkenlos
Do, 22.08. 8:00 13.6° C leicht bewölkt
Do, 22.08. 2:00 12.1° C wolkenlos
Mi, 21.08. 20:00 18.8° C bewölkt
Mi, 21.08. 14:00 20.5° C wolkig
Ortszeit Temperatur Wetter
Fr, 23.08. 8:00 14.6° C leicht bewölkt
Fr, 23.08. 7:50 14.6° C leicht bewölkt
Fr, 23.08. 7:40 14.0° C leicht bewölkt
Fr, 23.08. 7:30 13.2° C fast wolkenlos
Fr, 23.08. 7:20 13.2° C fast wolkenlos
Fr, 23.08. 7:10 12.7° C fast wolkenlos
Fr, 23.08. 7:00 12.0° C wolkenlos
Fr, 23.08. 6:30 12.0° C wolkenlos
Fr, 23.08. 6:00 12.0° C wolkenlos
Fr, 23.08. 5:30 11.8° C wolkenlos
Fr, 23.08. 5:00 12.2° C wolkenlos
Ortszeit Relative Feuchte Sichtweite
Fr, 23.08. 8:00 85% 17 km
Fr, 23.08. 2:00 83% 21 km
Do, 22.08. 20:00 47% 45 km
Do, 22.08. 14:00 34% 40 km
Do, 22.08. 8:00 84% 30 km
Do, 22.08. 2:00 89% 35 km
Mi, 21.08. 20:00 63% 50 km
Mi, 21.08. 14:00 52% 35 km
Ortszeit Relative Feuchte Sichtweite
Fr, 23.08. 8:00 85% 17 km
Fr, 23.08. 7:50 85% -
Fr, 23.08. 7:40 85% -
Fr, 23.08. 7:30 88% 13 km
Fr, 23.08. 7:20 88% -
Fr, 23.08. 7:10 89% -
Fr, 23.08. 7:00 92% 11 km
Fr, 23.08. 6:30 94% 10 km
Fr, 23.08. 6:00 94% 8 km
Fr, 23.08. 5:30 93% 9 km
Fr, 23.08. 5:00 93% 8 km
Ortszeit Niederschlagsmenge Niederschlagsart
Fr, 23.08. 8:00 0.0 l/m2 in 12 Std. -
Fr, 23.08. 2:00 0.0 l/m2 in 6 Std. -
Do, 22.08. 20:00 0.0 l/m2 in 12 Std. -
Do, 22.08. 14:00 0.0 l/m2 in 6 Std. -
Do, 22.08. 8:00 0.0 l/m2 in 12 Std. -
Do, 22.08. 2:00 0.0 l/m2 in 6 Std. -
Mi, 21.08. 20:00 0.0 l/m2 in 12 Std. -
Mi, 21.08. 14:00 0.0 l/m2 in 6 Std. -
Ortszeit Niederschlagsmenge Niederschlagsart
Fr, 23.08. 8:00 0.0 l/m2 in 1 Std. -
Fr, 23.08. 7:50 keine Meldung -
Fr, 23.08. 7:40 keine Meldung -
Fr, 23.08. 7:30 0.0 l/m2 in 1 Std. -
Fr, 23.08. 7:20 keine Meldung -
Fr, 23.08. 7:10 keine Meldung -
Fr, 23.08. 7:00 0.0 l/m2 in 1 Std. -
Fr, 23.08. 6:30 0.0 l/m2 in 1 Std. -
Fr, 23.08. 6:00 0.0 l/m2 in 1 Std. -
Fr, 23.08. 5:30 0.0 l/m2 in 1 Std. -
Fr, 23.08. 5:00 0.0 l/m2 in 1 Std. -
Ortszeit Stärke Spitze Richtung
km/h Bft. km/h Grad Sektor
Fr, 23.08. 8:00 11 2 14 230° SW
Fr, 23.08. 2:00 4 1 25 340° N
Do, 22.08. 20:00 7 2 40 250° W
Do, 22.08. 14:00 22 4 40 170° S
Do, 22.08. 8:00 9 2 15 180° S
Do, 22.08. 2:00 13 3 15 200° S
Mi, 21.08. 20:00 7 2 32 280° W
Mi, 21.08. 14:00 22 4 36 260° W
Ortszeit Stärke Spitze Richtung
km/h Bft. km/h Grad Sektor
Fr, 23.08. 8:00 11 2 14 230° SW
Fr, 23.08. 7:50 11 2 - 230° SW
Fr, 23.08. 7:40 11 2 - 210° SW
Fr, 23.08. 7:30 11 2 11 210° SW
Fr, 23.08. 7:20 11 2 - 210° SW
Fr, 23.08. 7:10 7 2 - 210° SW
Fr, 23.08. 7:00 11 2 11 210° SW
Fr, 23.08. 6:30 9 2 11 210° SW
Fr, 23.08. 6:00 11 2 14 230° SW
Fr, 23.08. 5:30 9 2 13 240° SW
Fr, 23.08. 5:00 11 2 14 270° W
Ortszeit Untergrenze Bedeckung Gattung
total tief tief mittel hoch
Fr, 23.08. 8:00 10500 m 6/8 0/8 - - -
Fr, 23.08. 2:00 - 0/8 0/8 - - -
Do, 22.08. 20:00 - 0/8 0/8 - - -
Do, 22.08. 14:00 6900 m 1/8 1/8 - - -
Do, 22.08. 8:00 10500 m 3/8 0/8 - - -
Do, 22.08. 2:00 - 0/8 0/8 - - -
Mi, 21.08. 20:00 2100 m 7/8 7/8 - - -
Mi, 21.08. 14:00 2100 m 5/8 4/8 - - -
Ortszeit Bedeckungsgrad in Achtel und Wolkenuntergrenze
Fr, 23.08. 8:00 3(10500m) 6(10500m)
Fr, 23.08. 7:50 3(10500m) 6(10500m)
Fr, 23.08. 7:40 4(10500m)
Fr, 23.08. 7:30 2(10500m)
Fr, 23.08. 7:20 2(10500m)
Fr, 23.08. 7:10 1(10500m)
Fr, 23.08. 7:00 keine Wolken
Fr, 23.08. 6:30 keine Wolken
Fr, 23.08. 6:00 keine Wolken
Fr, 23.08. 5:30 keine Wolken
Fr, 23.08. 5:00 keine Wolken
Ortszeit Luftdruck NN (hPa) Tendenz (hPa in 3 Std.)
Fr, 23.08. 8:00 1026 + 0,5
Fr, 23.08. 2:00 1025 + 0,5
Do, 22.08. 20:00 1024 - 0,6
Do, 22.08. 14:00 1026 - 1,7
Do, 22.08. 8:00 1028 - 0,6
Do, 22.08. 2:00 1028 0,0
Mi, 21.08. 20:00 1028 + 0,2
Mi, 21.08. 14:00 1027 + 0,1
Ortszeit Luftdruck NN (hPa) Tendenz (hPa in 3 Std.)
Fr, 23.08. 8:00 1026 + 0,5
Fr, 23.08. 7:50 1026 keine Meldung
Fr, 23.08. 7:40 1026 keine Meldung
Fr, 23.08. 7:30 1026 + 0,5
Fr, 23.08. 7:20 1026 keine Meldung
Fr, 23.08. 7:10 1026 keine Meldung
Fr, 23.08. 7:00 1026 + 0,4
Fr, 23.08. 6:30 1026 + 0,2
Fr, 23.08. 6:00 1026 + 0,3
Fr, 23.08. 5:30 1026 + 0,1
Fr, 23.08. 5:00 1026 + 0,2
Ortszeit Schneehöhe (cm)
Fr, 23.08. 8:00 -
Fr, 23.08. 2:00 -
Do, 22.08. 20:00 -
Do, 22.08. 14:00 -
Do, 22.08. 8:00 -
Do, 22.08. 2:00 -
Mi, 21.08. 20:00 -
Mi, 21.08. 14:00 -
Ortszeit Schneehöhe (cm)
Fr, 23.08. 8:00 -
Fr, 23.08. 7:50 -
Fr, 23.08. 7:40 -
Fr, 23.08. 7:30 -
Fr, 23.08. 7:20 -
Fr, 23.08. 7:10 -
Fr, 23.08. 7:00 -
Fr, 23.08. 6:30 -
Fr, 23.08. 6:00 -
Fr, 23.08. 5:30 -
Fr, 23.08. 5:00 -
Link zu dieser Seite / Seite empfehlen

Das Wetter in ...